createdAt,value
2018-12-21T06:24:12.523Z,1000.81
2018-12-21T06:25:12.497Z,1000.81
2018-12-21T06:26:12.485Z,1000.83
2018-12-21T06:27:12.475Z,1000.83
2018-12-21T06:28:12.477Z,1000.79
2018-12-21T06:29:12.471Z,1000.77
2018-12-21T06:30:12.450Z,1000.78
2018-12-21T06:31:12.434Z,1000.70
2018-12-21T06:32:12.421Z,1000.64
2018-12-21T06:33:12.416Z,1000.66
2018-12-21T06:34:12.421Z,1000.69
2018-12-21T06:35:12.392Z,1000.66
2018-12-21T06:36:12.380Z,1000.64
2018-12-21T06:37:12.383Z,1000.60
2018-12-21T06:38:12.363Z,1000.51
2018-12-21T06:39:12.402Z,1000.46
2018-12-21T06:40:12.353Z,1000.43
2018-12-21T06:41:12.332Z,1000.36
2018-12-21T06:42:12.319Z,1000.37
2018-12-21T06:43:12.321Z,1000.32
2018-12-21T06:44:12.328Z,1000.35
2018-12-21T06:45:12.301Z,1000.32
2018-12-21T06:46:14.309Z,1000.29
2018-12-21T06:47:12.283Z,1000.35
2018-12-21T06:48:12.263Z,1000.28
2018-12-21T06:49:12.264Z,1000.21
2018-12-21T06:50:12.237Z,1000.18
2018-12-21T06:51:12.236Z,1000.23
2018-12-21T06:52:12.226Z,1000.22
2018-12-21T06:53:17.941Z,1000.25
2018-12-21T06:54:13.213Z,1000.19
2018-12-21T06:55:12.195Z,1000.22
2018-12-21T06:56:12.175Z,1000.18
2018-12-21T06:57:12.184Z,1000.13
2018-12-21T06:58:12.158Z,1000.10
2018-12-21T06:59:12.167Z,1000.05
2018-12-21T07:00:12.139Z,1000.02
2018-12-21T07:01:12.129Z,1000.06
2018-12-21T07:02:12.109Z,1000.01
2018-12-21T07:03:17.047Z,999.98
2018-12-21T07:04:13.109Z,1000.05
2018-12-21T07:05:12.082Z,1000.00
2018-12-21T07:06:12.075Z,1000.00
2018-12-21T07:07:12.060Z,999.99
2018-12-21T07:08:12.081Z,999.99
2018-12-21T07:09:12.054Z,999.89
2018-12-21T07:10:12.026Z,999.89
2018-12-21T07:11:12.020Z,999.91
2018-12-21T07:12:12.041Z,999.92
2018-12-21T07:13:11.997Z,999.92
2018-12-21T07:14:11.988Z,999.88
2018-12-21T07:15:11.990Z,999.86
2018-12-21T07:16:11.975Z,999.82
2018-12-21T07:17:11.958Z,999.81
2018-12-21T07:18:11.952Z,999.79
2018-12-21T07:19:19.023Z,999.81
2018-12-21T07:20:11.920Z,999.82
2018-12-21T07:21:11.907Z,999.81
2018-12-21T07:22:11.895Z,999.90
2018-12-21T07:23:11.887Z,999.76
2018-12-21T07:24:11.900Z,999.83
2018-12-21T07:25:11.864Z,999.76
2018-12-21T07:26:11.858Z,999.83
2018-12-21T07:27:11.844Z,999.70
2018-12-21T07:28:11.839Z,999.72
2018-12-21T07:29:11.839Z,999.67
2018-12-21T07:30:11.812Z,999.74
2018-12-21T07:31:11.848Z,999.58
2018-12-21T07:32:11.790Z,999.58
2018-12-21T07:33:11.777Z,999.66
2018-12-21T07:34:11.789Z,999.51
2018-12-21T07:35:11.758Z,999.52
2018-12-21T07:36:11.748Z,999.51
2018-12-21T07:37:11.736Z,999.47
2018-12-21T07:38:11.729Z,999.54
2018-12-21T07:39:11.752Z,999.47
2018-12-21T07:40:11.706Z,999.43
2018-12-21T07:41:11.693Z,999.43
2018-12-21T07:42:11.717Z,999.35
2018-12-21T07:43:11.672Z,999.42
2018-12-21T07:44:11.895Z,999.34
2018-12-21T07:45:11.668Z,999.37
2018-12-21T07:46:11.662Z,999.28
2018-12-21T07:47:11.631Z,999.40
2018-12-21T07:48:11.634Z,999.26
2018-12-21T07:49:11.626Z,999.23
2018-12-21T07:50:11.597Z,999.23
2018-12-21T07:51:11.588Z,999.25
2018-12-21T07:52:11.614Z,999.14
2018-12-21T07:53:11.581Z,999.14
2018-12-21T07:54:11.582Z,999.18
2018-12-21T07:55:11.549Z,999.18
2018-12-21T07:56:11.539Z,999.16
2018-12-21T07:57:11.521Z,999.11
2018-12-21T07:58:11.514Z,999.00
2018-12-21T07:59:11.503Z,999.02
2018-12-21T08:00:11.546Z,998.96
2018-12-21T08:01:11.480Z,998.93
2018-12-21T08:02:11.474Z,998.89
2018-12-21T08:03:11.459Z,998.85
2018-12-21T08:04:11.451Z,998.87
2018-12-21T08:05:11.457Z,998.81
2018-12-21T08:06:11.425Z,998.77
2018-12-21T08:07:11.433Z,998.83
2018-12-21T08:08:11.408Z,998.75
2018-12-21T08:09:11.401Z,998.66
2018-12-21T08:10:11.416Z,998.60
2018-12-21T08:11:11.374Z,998.62
2018-12-21T08:12:11.363Z,998.57
2018-12-21T08:13:11.375Z,998.55
2018-12-21T08:14:11.346Z,998.45
2018-12-21T08:15:11.381Z,998.41
2018-12-21T08:16:11.327Z,998.34
2018-12-21T08:17:11.309Z,998.26
2018-12-21T08:18:11.312Z,998.25
2018-12-21T08:19:11.287Z,998.20
2018-12-21T08:20:11.307Z,998.12
2018-12-21T08:21:11.272Z,998.25
2018-12-21T08:22:11.259Z,998.09
2018-12-21T08:23:11.250Z,997.99
2018-12-21T08:24:11.242Z,997.93
2018-12-21T08:25:11.243Z,997.94
2018-12-21T08:26:11.210Z,997.87
2018-12-21T08:27:11.211Z,997.80
2018-12-21T08:28:11.192Z,997.72
2018-12-21T08:29:11.178Z,997.64
2018-12-21T08:30:11.180Z,997.63
2018-12-21T08:31:11.305Z,997.62
2018-12-21T08:32:11.146Z,997.61
2018-12-21T08:33:11.145Z,997.56
2018-12-21T08:34:11.129Z,997.48
2018-12-21T08:35:11.165Z,997.51
2018-12-21T08:36:11.104Z,997.75
2018-12-21T08:37:11.093Z,997.88
2018-12-21T08:38:11.083Z,997.81
2018-12-21T08:39:11.079Z,997.74
2018-12-21T08:40:11.086Z,997.64
2018-12-21T08:41:11.064Z,997.59
2018-12-21T08:42:11.042Z,997.62
2018-12-21T08:43:11.032Z,997.63
2018-12-21T08:44:11.018Z,997.59
2018-12-21T08:45:11.099Z,997.59
2018-12-21T08:46:11.001Z,997.52
2018-12-21T08:47:10.987Z,997.53
2018-12-21T08:48:11.093Z,997.46
2018-12-21T08:49:11.042Z,997.53
2018-12-21T08:50:10.979Z,997.52
2018-12-21T08:51:10.947Z,997.48
2018-12-21T08:52:10.940Z,997.50
2018-12-21T08:53:10.946Z,997.46
2018-12-21T08:54:10.913Z,997.46
2018-12-21T08:55:12.037Z,997.53
2018-12-21T08:56:10.896Z,997.42
2018-12-21T08:57:10.911Z,997.37
2018-12-21T08:58:10.875Z,997.41
2018-12-21T08:59:10.857Z,997.39
2018-12-21T09:00:10.871Z,997.26
2018-12-21T09:01:10.835Z,997.33
2018-12-21T09:02:10.832Z,997.32
2018-12-21T09:03:10.814Z,997.30
2018-12-21T09:04:10.854Z,997.20
2018-12-21T09:05:10.811Z,997.14
2018-12-21T09:06:18.260Z,997.11
2018-12-21T09:07:11.768Z,997.17
2018-12-21T09:08:10.769Z,997.09
2018-12-21T09:09:10.751Z,997.05
2018-12-21T09:10:10.923Z,997.04
2018-12-21T09:11:10.741Z,997.05
2018-12-21T09:12:10.718Z,996.99
2018-12-21T09:13:10.723Z,997.07
2018-12-21T09:14:10.696Z,997.05
2018-12-21T09:15:10.703Z,997.01
2018-12-21T09:16:10.677Z,996.98
2018-12-21T09:17:10.668Z,996.96
2018-12-21T09:18:10.657Z,996.96
2018-12-21T09:19:10.641Z,996.92
2018-12-21T09:20:10.651Z,996.89
2018-12-21T09:21:10.621Z,996.98
2018-12-21T09:22:10.617Z,996.98
2018-12-21T09:23:10.609Z,996.96
2018-12-21T09:24:10.588Z,996.96
2018-12-21T09:25:10.592Z,996.94
2018-12-21T09:26:10.568Z,997.03
2018-12-21T09:27:10.556Z,996.98
2018-12-21T09:28:10.551Z,997.00
2018-12-21T09:29:10.553Z,996.99
2018-12-21T09:30:10.567Z,996.97
2018-12-21T09:31:10.587Z,996.93
2018-12-21T09:32:10.501Z,996.94
2018-12-21T09:33:10.494Z,996.87
2018-12-21T09:34:10.482Z,996.93
2018-12-21T09:35:10.749Z,996.88
2018-12-21T09:36:10.523Z,996.80
2018-12-21T09:37:10.455Z,996.74
2018-12-21T09:38:10.557Z,996.73
2018-12-21T09:39:10.518Z,996.75
2018-12-21T09:40:10.482Z,996.70
2018-12-21T09:41:10.404Z,996.83
2018-12-21T09:42:10.393Z,996.76
2018-12-21T09:43:10.383Z,996.73
2018-12-21T09:44:10.373Z,996.56
2018-12-21T09:45:10.392Z,996.64
2018-12-21T09:46:10.357Z,996.68
2018-12-21T09:47:10.347Z,996.63
2018-12-21T09:48:10.327Z,996.75
2018-12-21T09:49:10.323Z,996.68
2018-12-21T09:50:10.314Z,996.63
2018-12-21T09:51:10.315Z,996.58
2018-12-21T09:52:10.317Z,996.65
2018-12-21T09:53:10.321Z,996.57
2018-12-21T09:54:10.420Z,996.57
2018-12-21T09:55:10.256Z,996.54
2018-12-21T09:56:10.312Z,996.53
2018-12-21T09:57:10.256Z,996.46
2018-12-21T09:58:10.232Z,996.37
2018-12-21T09:59:10.232Z,996.39
2018-12-21T10:00:10.228Z,996.45
2018-12-21T10:01:10.211Z,996.48
2018-12-21T10:02:10.177Z,996.41
2018-12-21T10:03:10.192Z,996.37
2018-12-21T10:04:10.161Z,996.39
2018-12-21T10:05:10.164Z,996.36
2018-12-21T10:06:10.153Z,996.37
2018-12-21T10:07:10.157Z,996.33
2018-12-21T10:08:10.135Z,996.26
2018-12-21T10:09:10.122Z,996.31
2018-12-21T10:10:10.108Z,996.25
2018-12-21T10:11:10.141Z,996.23
2018-12-21T10:12:10.075Z,996.24
2018-12-21T10:13:10.068Z,996.29
2018-12-21T10:14:10.056Z,996.23
2018-12-21T10:15:10.037Z,996.14
2018-12-21T10:16:10.063Z,996.15
2018-12-21T10:17:10.027Z,996.15
2018-12-21T10:18:10.031Z,996.17
2018-12-21T10:19:09.996Z,996.11
2018-12-21T10:20:10.006Z,996.16
2018-12-21T10:21:10.010Z,996.08
2018-12-21T10:22:09.984Z,996.07
2018-12-21T10:23:09.950Z,996.06
2018-12-21T10:24:18.333Z,996.08
2018-12-21T10:25:10.943Z,996.11
2018-12-21T10:26:09.944Z,996.15
2018-12-21T10:27:09.928Z,996.11
2018-12-21T10:28:09.899Z,996.07
2018-12-21T10:29:09.888Z,996.05
2018-12-21T10:30:09.876Z,996.03
2018-12-21T10:31:09.898Z,996.06
2018-12-21T10:32:09.861Z,996.09
2018-12-21T10:33:09.867Z,996.01
2018-12-21T10:34:09.838Z,996.07
2018-12-21T10:35:09.824Z,996.10
2018-12-21T10:36:09.830Z,996.06
2018-12-21T10:37:09.801Z,996.07
2018-12-21T10:38:09.791Z,995.99
2018-12-21T10:39:09.775Z,996.00
2018-12-21T10:40:09.793Z,995.95
2018-12-21T10:41:09.774Z,995.96
2018-12-21T10:42:09.762Z,995.94
2018-12-21T10:43:09.742Z,995.94
2018-12-21T10:44:09.758Z,995.96
2018-12-21T10:45:09.717Z,995.90
2018-12-21T10:46:09.718Z,995.96
2018-12-21T10:47:09.712Z,995.91
2018-12-21T10:48:09.715Z,995.97
2018-12-21T10:49:09.707Z,995.94
2018-12-21T10:50:09.657Z,995.94
2018-12-21T10:51:09.696Z,995.91
2018-12-21T10:52:09.643Z,995.98
2018-12-21T10:53:09.648Z,995.96
2018-12-21T10:54:09.617Z,995.96
2018-12-21T10:55:09.606Z,995.94
2018-12-21T10:56:09.667Z,995.89
2018-12-21T10:57:09.583Z,995.90
2018-12-21T10:58:09.578Z,995.88
2018-12-21T10:59:09.572Z,995.91
2018-12-21T11:00:09.627Z,995.89
2018-12-21T11:01:09.588Z,995.86
2018-12-21T11:02:09.529Z,995.94
2018-12-21T11:03:09.533Z,995.88
2018-12-21T11:04:09.508Z,995.89
2018-12-21T11:05:09.517Z,995.91
2018-12-21T11:06:09.618Z,995.92
2018-12-21T11:07:09.470Z,995.83
2018-12-21T11:08:09.461Z,995.85
2018-12-21T11:09:09.450Z,995.84
2018-12-21T11:10:09.493Z,995.86
2018-12-21T11:11:09.463Z,995.90
2018-12-21T11:12:09.467Z,995.85
2018-12-21T11:13:09.408Z,995.79
2018-12-21T11:14:09.420Z,995.82
2018-12-21T11:15:09.395Z,995.87
2018-12-21T11:16:09.435Z,995.77
2018-12-21T11:17:09.382Z,995.71
2018-12-21T11:18:09.381Z,995.74
2018-12-21T11:19:09.357Z,995.74
2018-12-21T11:20:09.357Z,995.64
2018-12-21T11:21:09.360Z,995.79
2018-12-21T11:22:09.306Z,995.82
2018-12-21T11:23:09.313Z,995.79
2018-12-21T11:24:09.458Z,995.76
2018-12-21T11:25:09.273Z,995.51
2018-12-21T11:26:09.277Z,995.69
2018-12-21T11:27:09.258Z,995.75
2018-12-21T11:28:09.349Z,995.74
2018-12-21T11:29:09.316Z,995.76
2018-12-21T11:30:09.250Z,995.78
2018-12-21T11:31:09.225Z,995.85
2018-12-21T11:32:09.200Z,995.89
2018-12-21T11:33:09.246Z,995.88
2018-12-21T11:34:09.198Z,995.88
2018-12-21T11:35:09.371Z,995.90
2018-12-21T11:36:09.168Z,995.76
2018-12-21T11:37:09.150Z,995.90
2018-12-21T11:38:09.142Z,995.85
2018-12-21T11:39:09.268Z,995.83
2018-12-21T11:40:09.120Z,995.75
2018-12-21T11:41:09.096Z,995.87
2018-12-21T11:42:09.117Z,995.78
2018-12-21T11:43:09.082Z,995.91
2018-12-21T11:44:09.072Z,995.97
2018-12-21T11:45:09.047Z,995.86
2018-12-21T11:46:09.039Z,995.89
2018-12-21T11:47:09.050Z,995.82
2018-12-21T11:48:09.015Z,995.76
2018-12-21T11:49:09.006Z,995.72
2018-12-21T11:50:08.991Z,995.73
2018-12-21T11:51:09.013Z,995.83
2018-12-21T11:52:08.985Z,995.63
2018-12-21T11:53:09.863Z,995.83
2018-12-21T11:54:08.948Z,995.84
2018-12-21T11:55:08.938Z,995.66
2018-12-21T11:56:08.951Z,995.83
2018-12-21T11:57:08.966Z,995.74
2018-12-21T11:58:08.900Z,995.85
2018-12-21T11:59:08.919Z,995.99
2018-12-21T12:00:08.878Z,995.96
2018-12-21T12:01:08.866Z,995.93
2018-12-21T12:02:08.883Z,995.74
2018-12-21T12:03:08.847Z,995.87
2018-12-21T12:04:08.847Z,995.92
2018-12-21T12:05:08.824Z,995.92
2018-12-21T12:06:08.814Z,996.00
2018-12-21T12:07:08.828Z,996.00
2018-12-21T12:08:08.792Z,995.85
2018-12-21T12:09:08.780Z,996.15
2018-12-21T12:10:08.932Z,996.01
2018-12-21T12:11:08.872Z,995.99
2018-12-21T12:12:08.776Z,996.14
2018-12-21T12:13:08.851Z,995.97
2018-12-21T12:14:08.729Z,996.07
2018-12-21T12:15:08.714Z,996.14
2018-12-21T12:16:08.705Z,996.19
2018-12-21T12:17:08.728Z,996.08
2018-12-21T12:18:08.686Z,996.16
2018-12-21T12:19:08.711Z,996.07
2018-12-21T12:20:08.662Z,996.05
2018-12-21T12:21:08.646Z,996.04
2018-12-21T12:22:08.658Z,996.10
2018-12-21T12:23:08.635Z,996.16
2018-12-21T12:24:08.721Z,996.27
2018-12-21T12:25:08.603Z,996.42
2018-12-21T12:26:08.596Z,996.13
2018-12-21T12:27:08.598Z,996.25
2018-12-21T12:28:08.569Z,996.27
2018-12-21T12:29:08.561Z,996.02
2018-12-21T12:30:08.654Z,996.21
2018-12-21T12:31:08.538Z,996.24
2018-12-21T12:32:08.544Z,996.24
2018-12-21T12:33:08.518Z,996.26
2018-12-21T12:34:08.504Z,996.29
2018-12-21T12:35:08.492Z,996.25
2018-12-21T12:36:08.484Z,996.21
2018-12-21T12:37:08.500Z,996.26
2018-12-21T12:38:08.467Z,996.17
2018-12-21T12:39:08.453Z,996.17
2018-12-21T12:40:08.443Z,996.12
2018-12-21T12:41:08.427Z,996.17
2018-12-21T12:42:08.441Z,996.11
2018-12-21T12:43:08.407Z,996.23
2018-12-21T12:44:08.397Z,996.23
2018-12-21T12:45:08.389Z,996.21
2018-12-21T12:46:08.377Z,996.23
2018-12-21T12:47:08.410Z,996.21
2018-12-21T12:48:08.374Z,996.19
2018-12-21T12:49:08.340Z,996.32
2018-12-21T12:50:08.357Z,996.21
2018-12-21T12:51:08.327Z,996.37
2018-12-21T12:52:08.330Z,996.29
2018-12-21T12:53:08.301Z,996.25
2018-12-21T12:54:08.285Z,996.33
2018-12-21T12:55:08.353Z,996.32
2018-12-21T12:56:08.347Z,996.32
2018-12-21T12:57:08.285Z,996.23
2018-12-21T12:58:08.247Z,996.29
2018-12-21T12:59:08.238Z,996.33
2018-12-21T13:00:08.220Z,996.30
2018-12-21T13:01:08.208Z,996.36
2018-12-21T13:02:08.226Z,996.21
2018-12-21T13:03:08.197Z,996.27
2018-12-21T13:04:08.184Z,996.29
2018-12-21T13:05:08.167Z,996.50
2018-12-21T13:06:08.155Z,996.33
2018-12-21T13:07:08.169Z,996.39
2018-12-21T13:08:08.250Z,996.35
2018-12-21T13:09:08.121Z,996.46
2018-12-21T13:10:08.113Z,996.26
2018-12-21T13:11:08.102Z,996.31
2018-12-21T13:12:08.112Z,996.39
2018-12-21T13:13:08.081Z,996.40
2018-12-21T13:14:08.081Z,996.42
2018-12-21T13:15:08.061Z,996.29
2018-12-21T13:16:08.092Z,996.48
2018-12-21T13:17:08.081Z,996.48
2018-12-21T13:18:08.023Z,996.54
2018-12-21T13:19:08.018Z,996.52
2018-12-21T13:20:08.009Z,996.52
2018-12-21T13:21:08.016Z,996.49
2018-12-21T13:22:08.017Z,996.45
2018-12-21T13:23:07.981Z,996.42
2018-12-21T13:24:07.996Z,996.35
2018-12-21T13:25:11.535Z,996.39
2018-12-21T13:26:07.952Z,996.43
2018-12-21T13:27:07.965Z,996.48
2018-12-21T13:28:07.950Z,996.38
2018-12-21T13:29:07.908Z,996.36
2018-12-21T13:30:07.895Z,996.41
2018-12-21T13:31:07.909Z,996.42
2018-12-21T13:32:07.881Z,996.42
2018-12-21T13:33:07.891Z,996.39
2018-12-21T13:34:07.849Z,996.44
2018-12-21T13:35:07.856Z,996.45
2018-12-21T13:36:07.842Z,996.46
2018-12-21T13:37:07.846Z,996.60
2018-12-21T13:38:07.952Z,996.44
2018-12-21T13:39:07.816Z,996.43
2018-12-21T13:40:07.802Z,996.63
2018-12-21T13:41:07.773Z,996.55
2018-12-21T13:42:07.775Z,996.63
2018-12-21T13:43:07.790Z,996.72
2018-12-21T13:44:07.764Z,996.68
2018-12-21T13:45:07.747Z,996.74
2018-12-21T13:46:07.719Z,996.60
2018-12-21T13:47:07.706Z,996.67
2018-12-21T13:48:07.738Z,996.69
2018-12-21T13:49:07.702Z,996.66
2018-12-21T13:50:07.716Z,996.55
2018-12-21T13:51:07.710Z,996.64
2018-12-21T13:52:07.666Z,996.61
2018-12-21T13:53:07.699Z,996.60
2018-12-21T13:54:07.631Z,996.65
2018-12-21T13:55:07.652Z,996.71
2018-12-21T13:56:07.637Z,996.84
2018-12-21T13:57:07.604Z,996.64
2018-12-21T13:58:07.607Z,996.80
2018-12-21T13:59:07.589Z,996.45
2018-12-21T14:00:07.573Z,996.72
2018-12-21T14:01:07.699Z,996.79
2018-12-21T14:02:07.553Z,996.69
2018-12-21T14:03:07.574Z,996.94
2018-12-21T14:04:07.522Z,996.85
2018-12-21T14:05:07.521Z,996.80
2018-12-21T14:06:07.635Z,996.91
2018-12-21T14:07:07.521Z,996.87
2018-12-21T14:08:07.499Z,996.93
2018-12-21T14:09:08.409Z,996.82
2018-12-21T14:10:07.457Z,996.95
2018-12-21T14:11:07.458Z,997.04
2018-12-21T14:12:07.451Z,996.93
2018-12-21T14:13:07.493Z,997.06
2018-12-21T14:14:07.434Z,997.10
2018-12-21T14:15:07.401Z,997.10
2018-12-21T14:16:07.391Z,997.05
2018-12-21T14:17:07.386Z,997.04
2018-12-21T14:18:07.418Z,997.06
2018-12-21T14:19:07.375Z,997.01
2018-12-21T14:20:07.353Z,997.08
2018-12-21T14:21:07.336Z,997.15
2018-12-21T14:22:07.336Z,997.15
2018-12-21T14:23:07.346Z,997.22
2018-12-21T14:24:07.302Z,997.24
2018-12-21T14:25:07.321Z,997.23
2018-12-21T14:26:07.290Z,997.26
2018-12-21T14:27:07.301Z,997.24
2018-12-21T14:28:07.284Z,997.22
2018-12-21T14:29:07.285Z,997.27
2018-12-21T14:30:07.236Z,997.20
2018-12-21T14:31:07.543Z,997.21
2018-12-21T14:32:07.257Z,997.23
2018-12-21T14:33:07.239Z,997.28
2018-12-21T14:34:07.253Z,997.19
2018-12-21T14:35:07.226Z,997.23
2018-12-21T14:36:07.177Z,997.31
2018-12-21T14:37:07.174Z,997.14
2018-12-21T14:38:07.188Z,997.23
2018-12-21T14:39:07.142Z,997.24
2018-12-21T14:40:07.130Z,997.29
2018-12-21T14:41:07.149Z,997.25
2018-12-21T14:42:07.141Z,997.27
2018-12-21T14:43:07.103Z,997.22
2018-12-21T14:44:07.121Z,997.35
2018-12-21T14:45:07.107Z,997.29
2018-12-21T14:46:07.077Z,997.32
2018-12-21T14:47:07.058Z,997.29
2018-12-21T14:48:07.041Z,997.28
2018-12-21T14:49:07.081Z,997.34
2018-12-21T14:50:07.020Z,997.36
2018-12-21T14:51:07.011Z,997.43
2018-12-21T14:52:07.021Z,997.36
2018-12-21T14:53:06.990Z,997.33
2018-12-21T14:54:07.045Z,997.41
2018-12-21T14:55:06.987Z,997.47
2018-12-21T14:56:06.986Z,997.43
2018-12-21T14:57:06.989Z,997.37
2018-12-21T14:58:06.939Z,997.48
2018-12-21T14:59:06.938Z,997.50
2018-12-21T15:00:06.925Z,997.54
2018-12-21T15:01:06.920Z,997.58
2018-12-21T15:02:06.927Z,997.47
2018-12-21T15:03:06.875Z,997.53
2018-12-21T15:04:06.893Z,997.46
2018-12-21T15:05:06.856Z,997.51
2018-12-21T15:06:06.849Z,997.42
2018-12-21T15:07:06.838Z,997.42
2018-12-21T15:08:06.853Z,997.54
2018-12-21T15:09:06.847Z,997.31
2018-12-21T15:10:06.821Z,997.52
2018-12-21T15:11:06.800Z,997.60
2018-12-21T15:12:06.791Z,997.61
2018-12-21T15:13:06.801Z,997.60
2018-12-21T15:14:06.786Z,997.70
2018-12-21T15:15:06.767Z,997.60
2018-12-21T15:16:06.793Z,997.70
2018-12-21T15:17:06.728Z,997.70
2018-12-21T15:18:06.752Z,997.77
2018-12-21T15:19:06.797Z,997.81
2018-12-21T15:20:06.698Z,997.79
2018-12-21T15:21:06.779Z,997.88
2018-12-21T15:22:06.756Z,997.89
2018-12-21T15:23:06.658Z,997.89
2018-12-21T15:24:06.749Z,997.90
2018-12-21T15:25:06.671Z,997.96
2018-12-21T15:26:06.655Z,997.94
2018-12-21T15:27:06.616Z,998.00
2018-12-21T15:28:06.642Z,998.00
2018-12-21T15:29:06.604Z,998.02
2018-12-21T15:30:06.615Z,998.10
2018-12-21T15:31:06.601Z,998.09
2018-12-21T15:32:06.559Z,998.16
2018-12-21T15:33:06.558Z,998.22
2018-12-21T15:34:06.550Z,998.21
2018-12-21T15:35:06.559Z,998.29
2018-12-21T15:36:06.525Z,998.21
2018-12-21T15:37:06.543Z,998.43
2018-12-21T15:38:06.494Z,998.45
2018-12-21T15:39:06.485Z,998.30
2018-12-21T15:40:06.498Z,998.40
2018-12-21T15:41:06.484Z,998.30
2018-12-21T15:42:06.476Z,998.23
2018-12-21T15:43:06.447Z,998.27
2018-12-21T15:44:06.694Z,998.29
2018-12-21T15:45:06.446Z,998.38
2018-12-21T15:46:06.526Z,998.40
2018-12-21T15:47:09.114Z,998.44
2018-12-21T15:48:06.402Z,998.48
2018-12-21T15:49:06.391Z,998.41
2018-12-21T15:50:06.366Z,998.54
2018-12-21T15:51:06.379Z,998.34
2018-12-21T15:52:06.345Z,998.45
2018-12-21T15:53:06.354Z,998.52
2018-12-21T15:54:06.325Z,998.51
2018-12-21T15:55:06.318Z,998.51
2018-12-21T15:56:06.490Z,998.41
2018-12-21T15:57:06.293Z,998.64
2018-12-21T15:58:06.289Z,998.68
2018-12-21T15:59:06.262Z,998.66
2018-12-21T16:00:06.304Z,998.69
2018-12-21T16:01:06.279Z,998.78
2018-12-21T16:02:06.334Z,998.79
2018-12-21T16:03:06.332Z,998.85
2018-12-21T16:04:06.213Z,998.87
2018-12-21T16:05:06.204Z,998.88
2018-12-21T16:06:06.212Z,998.97
2018-12-21T16:07:06.208Z,999.02
2018-12-21T16:08:06.172Z,998.95
2018-12-21T16:09:06.150Z,998.96
2018-12-21T16:10:06.141Z,999.04
2018-12-21T16:11:06.150Z,998.95
2018-12-21T16:12:06.123Z,999.13
2018-12-21T16:13:06.106Z,999.15
2018-12-21T16:14:06.098Z,999.10
2018-12-21T16:15:06.088Z,999.02
2018-12-21T16:16:06.094Z,999.09
2018-12-21T16:17:06.066Z,999.07
2018-12-21T16:18:06.056Z,999.03
2018-12-21T16:19:06.041Z,999.07
2018-12-21T16:20:06.032Z,999.15
2018-12-21T16:21:06.049Z,999.02
2018-12-21T16:22:06.007Z,999.10
2018-12-21T16:23:06.003Z,999.42
2018-12-21T16:24:06.973Z,999.18
2018-12-21T16:25:05.978Z,999.28
2018-12-21T16:26:05.972Z,999.28
2018-12-21T16:27:05.972Z,999.23
2018-12-21T16:28:05.943Z,999.38
2018-12-21T16:29:05.936Z,999.44
2018-12-21T16:30:05.921Z,999.37
2018-12-21T16:31:05.917Z,999.34
2018-12-21T16:32:05.923Z,999.43
2018-12-21T16:33:05.894Z,999.30
2018-12-21T16:34:05.876Z,999.28
2018-12-21T16:35:05.867Z,999.40
2018-12-21T16:36:05.857Z,999.44
2018-12-21T16:37:05.866Z,999.53
2018-12-21T16:38:05.832Z,999.38
2018-12-21T16:39:05.822Z,999.61
2018-12-21T16:40:05.816Z,999.54
2018-12-21T16:41:05.802Z,999.35
2018-12-21T16:42:05.808Z,999.45
2018-12-21T16:43:05.780Z,999.53
2018-12-21T16:44:05.777Z,999.47
2018-12-21T16:45:05.770Z,999.37
2018-12-21T16:46:05.778Z,999.38
2018-12-21T16:47:05.759Z,999.57
2018-12-21T16:48:05.720Z,999.57
2018-12-21T16:49:05.711Z,999.59
2018-12-21T16:50:05.700Z,999.62
2018-12-21T16:51:05.690Z,999.45
2018-12-21T16:52:05.701Z,999.68
2018-12-21T16:53:05.674Z,999.59
2018-12-21T16:54:05.654Z,999.65
2018-12-21T16:55:05.643Z,999.62
2018-12-21T16:56:12.304Z,999.65
2018-12-21T16:57:06.652Z,999.64
2018-12-21T16:58:05.615Z,999.68
2018-12-21T16:59:05.599Z,999.75
2018-12-21T17:00:05.595Z,999.77
2018-12-21T17:01:05.578Z,999.82
2018-12-21T17:02:05.565Z,999.78
2018-12-21T17:03:05.577Z,999.82
2018-12-21T17:04:05.547Z,999.88
2018-12-21T17:05:05.536Z,999.80
2018-12-21T17:06:05.526Z,999.84
2018-12-21T17:07:05.551Z,999.77
2018-12-21T17:08:05.518Z,1000.02
2018-12-21T17:09:05.494Z,999.97
2018-12-21T17:10:05.477Z,1000.03
2018-12-21T17:11:05.482Z,999.98
2018-12-21T17:12:05.459Z,1000.00
2018-12-21T17:13:05.464Z,1000.23
2018-12-21T17:14:05.439Z,999.78
2018-12-21T17:15:05.429Z,1000.03
2018-12-21T17:16:05.414Z,1000.12
2018-12-21T17:17:05.429Z,1000.20
2018-12-21T17:18:05.420Z,999.87
2018-12-21T17:19:05.392Z,1000.09
2018-12-21T17:20:05.382Z,1000.13
2018-12-21T17:21:05.416Z,1000.04
2018-12-21T17:22:05.450Z,1000.01
2018-12-21T17:23:05.376Z,1000.20
2018-12-21T17:24:05.324Z,1000.11
2018-12-21T17:25:05.313Z,1000.01
2018-12-21T17:26:05.303Z,1000.07
2018-12-21T17:27:05.306Z,1000.02
2018-12-21T17:28:05.283Z,1000.14
2018-12-21T17:29:05.317Z,1000.26
2018-12-21T17:30:05.260Z,1000.15
2018-12-21T17:31:05.275Z,1000.21
2018-12-21T17:32:05.236Z,1000.18
2018-12-21T17:33:05.243Z,1000.24
2018-12-21T17:34:05.240Z,1000.23
2018-12-21T17:35:05.215Z,1000.21
2018-12-21T17:36:05.193Z,1000.28
2018-12-21T17:37:05.190Z,1000.31
2018-12-21T17:38:05.179Z,1000.32
2018-12-21T17:39:05.186Z,1000.34
2018-12-21T17:40:05.150Z,1000.29
2018-12-21T17:41:05.146Z,1000.34
2018-12-21T17:42:05.133Z,1000.18
2018-12-21T17:43:05.119Z,1000.23
2018-12-21T17:44:05.167Z,1000.36
2018-12-21T17:45:05.090Z,1000.38
2018-12-21T17:46:05.084Z,1000.49
2018-12-21T17:47:05.087Z,1000.39
2018-12-21T17:48:05.061Z,1000.44
2018-12-21T17:49:05.069Z,1000.54
2018-12-21T17:50:05.054Z,1000.46
2018-12-21T17:51:05.024Z,1000.44
2018-12-21T17:52:05.023Z,1000.58
2018-12-21T17:53:05.003Z,1000.55
2018-12-21T17:54:05.026Z,1000.66
2018-12-21T17:55:04.982Z,1000.59
2018-12-21T17:56:04.983Z,1000.55
2018-12-21T17:57:04.958Z,1000.68
2018-12-21T17:58:04.963Z,1000.60
2018-12-21T17:59:04.960Z,1000.77
2018-12-21T18:00:04.963Z,1000.61
2018-12-21T18:01:04.910Z,1000.67
2018-12-21T18:02:04.925Z,1000.62
2018-12-21T18:03:04.911Z,1000.80
2018-12-21T18:04:04.898Z,1000.75
2018-12-21T18:05:04.921Z,1000.84
2018-12-21T18:06:04.978Z,1000.79
2018-12-21T18:07:04.856Z,1000.82
2018-12-21T18:08:04.830Z,1000.89
2018-12-21T18:09:04.828Z,1000.80
2018-12-21T18:10:04.842Z,1000.83
2018-12-21T18:11:04.799Z,1000.86
2018-12-21T18:12:04.821Z,1000.87
2018-12-21T18:13:04.775Z,1000.99
2018-12-21T18:14:04.776Z,1000.97
2018-12-21T18:15:04.778Z,1000.95
2018-12-21T18:16:04.760Z,1001.00
2018-12-21T18:17:04.742Z,1001.01
2018-12-21T18:18:04.726Z,1001.00
2018-12-21T18:19:04.721Z,1000.93
2018-12-21T18:20:04.732Z,1001.05
2018-12-21T18:21:04.708Z,1000.99
2018-12-21T18:22:04.695Z,1001.04
2018-12-21T18:23:04.689Z,1001.09
2018-12-21T18:24:04.652Z,1001.16
2018-12-21T18:25:04.683Z,1000.99
2018-12-21T18:26:04.657Z,1001.04
2018-12-21T18:27:04.639Z,1001.17
2018-12-21T18:28:10.819Z,1001.22
2018-12-21T18:29:05.598Z,1001.15
2018-12-21T18:30:04.641Z,1001.21
2018-12-21T18:31:04.578Z,1001.13
2018-12-21T18:32:04.599Z,1001.20
2018-12-21T18:33:10.616Z,1001.19
2018-12-21T18:34:05.544Z,1001.21
2018-12-21T18:35:04.548Z,1001.30
2018-12-21T18:36:04.519Z,1001.24
2018-12-21T18:37:04.521Z,1001.22
2018-12-21T18:38:04.513Z,1001.33
2018-12-21T18:39:04.492Z,1001.32
2018-12-21T18:40:04.517Z,1001.37
2018-12-21T18:41:04.475Z,1001.25
2018-12-21T18:42:05.737Z,1001.29
2018-12-21T18:43:04.443Z,1001.42
2018-12-21T18:44:04.463Z,1001.38
2018-12-21T18:45:04.460Z,1001.32
2018-12-21T18:46:04.414Z,1001.33
2018-12-21T18:47:04.395Z,1001.35
2018-12-21T18:48:04.399Z,1001.43